Time;durP1;ratioP1;P1;durP2;ratioP2;P2;SDS_P1;SDS_P2;PMS_P1;PMS_P2;Temp;Humidity;BMP_temperature;BMP_pressure;BME280_temperature;BME280_humidity;BME280_pressure;Samples;Min_cycle;Max_cycle;Signal;HPM_P1;HPM_P2
2023/05/21 00:01:42;;;;;;;0.10;0.10;;;;;;;16.07;100.00;100204.97;5032507;28;20246;-82
2023/05/21 00:04:11;;;;;;;0.22;0.22;;;;;;;16.06;100.00;100211.22;5034171;28;20253;-82
2023/05/21 00:06:39;;;;;;;0.00;0.00;;;;;;;16.08;100.00;100209.41;5030043;28;20235;-82
2023/05/21 00:09:07;;;;;;;0.10;0.10;;;;;;;16.09;100.00;100204.94;5034039;28;20230;-82
2023/05/21 00:11:34;;;;;;;0.65;0.65;;;;;;;16.07;100.00;100206.75;5026842;28;20402;-82
2023/05/21 00:14:02;;;;;;;0.10;0.10;;;;;;;16.05;100.00;100203.25;5032691;28;20631;-82
2023/05/21 00:16:29;;;;;;;0.55;0.55;;;;;;;16.04;100.00;100207.69;5030835;28;20238;-82
2023/05/21 00:18:57;;;;;;;0.93;0.85;;;;;;;16.03;100.00;100210.38;5034312;28;20235;-82
2023/05/21 00:21:25;;;;;;;0.47;0.47;;;;;;;16.01;100.00;100213.06;5015310;28;20260;-82
2023/05/21 00:23:53;;;;;;;0.40;0.40;;;15.70;99.90;;;15.99;100.00;100205.09;5033990;28;20238;-82
2023/05/21 00:26:22;;;;;;;0.10;0.10;;;;;;;16.04;100.00;100217.47;5031428;28;20258;-82
2023/05/21 00:28:50;;;;;;;0.10;0.10;;;;;;;16.03;100.00;100213.06;5034204;28;20242;-82
2023/05/21 00:31:17;;;;;;;1.25;0.57;;;;;;;15.98;100.00;100206.00;5032345;28;20234;-83
2023/05/21 00:33:45;;;;;;;0.20;0.20;;;;;;;15.99;100.00;100206.88;5034037;28;20323;-81
2023/05/21 00:36:22;;;;;;;0.10;0.10;;;;;;;15.99;100.00;100212.22;5032713;28;20227;-82
2023/05/21 00:38:50;;;;;;;0.10;0.10;;;;;;;15.96;100.00;100210.50;5029314;28;20226;-82
2023/05/21 00:41:18;;;;;;;0.40;0.40;;;15.60;99.90;;;15.94;100.00;100211.41;5032467;28;20234;-83
2023/05/21 00:43:45;;;;;;;0.13;0.13;;;;;;;15.94;100.00;100214.09;5032002;28;20312;-83
2023/05/21 00:46:16;;;;;;;0.40;0.40;;;15.60;99.90;;;15.92;100.00;100221.22;5033531;28;20227;-82
2023/05/21 00:48:45;;;;;;;0.40;0.40;;;15.60;99.90;;;15.91;100.00;100222.13;5026211;28;20301;-82
2023/05/21 00:51:14;;;;;;;0.10;0.10;;;15.60;99.90;;;15.91;100.00;100225.69;5031804;28;20233;-83
2023/05/21 00:53:43;;;;;;;0.20;0.20;;;15.60;99.90;;;15.92;100.00;100223.91;5032364;28;20239;-83
2023/05/21 00:56:11;;;;;;;0.10;0.10;;;;;;;15.93;100.00;100236.31;5031008;28;20265;-82
2023/05/21 00:58:38;;;;;;;0.85;0.85;;;;;;;15.95;100.00;100229.19;5031251;28;20227;-82
2023/05/21 01:01:06;;;;;;;0.77;0.63;;;;;;;15.95;100.00;100223.84;5030909;28;20235;-82
2023/05/21 01:03:37;;;;;;;0.10;0.10;;;15.60;99.90;;;15.93;100.00;100225.66;5028600;28;20247;-83
2023/05/21 01:06:06;;;;;;;0.10;0.10;;;15.60;99.90;;;15.91;100.00;100227.47;5032858;28;20243;-82
2023/05/21 01:08:34;;;;;;;0.30;0.30;;;;;;;15.90;100.00;100223.03;5029577;28;20242;-82
2023/05/21 01:11:03;;;;;;;0.30;0.30;;;15.60;99.90;;;15.88;100.00;100223.06;5029283;28;20234;-82
2023/05/21 01:13:35;;;;;;;1.15;1.00;;;15.50;99.90;;;15.86;100.00;100232.88;5028795;28;20254;-83
2023/05/21 01:16:05;;;;;;;0.10;0.10;;;15.50;99.90;;;15.84;100.00;100234.69;5028291;28;20234;-83
2023/05/21 01:18:34;;;;;;;0.20;0.20;;;15.50;99.90;;;15.87;100.00;100228.41;5042059;28;20240;-83
2023/05/21 01:21:06;;;;;;;1.00;0.45;;;15.50;99.90;;;15.82;100.00;100233.81;5029137;28;20235;-83
2023/05/21 01:23:33;;;;;;;0.10;0.10;;;;;;;15.81;100.00;100223.19;5018129;28;20238;-83
2023/05/21 01:26:01;;;;;;;0.38;0.38;;;;;;;15.81;100.00;100229.41;5027450;28;20234;-83
2023/05/21 01:28:28;;;;;;;0.63;0.57;;;;;;;15.83;100.00;100232.03;5030225;28;20235;-82
2023/05/21 01:31:17;;;;;;;0.30;0.30;;;15.50;99.90;;;15.80;100.00;100230.31;5030424;28;20245;-82
2023/05/21 01:33:49;;;;;;;0.90;0.90;;;15.50;99.90;;;15.81;100.00;100218.72;5021675;28;20234;-82
2023/05/21 01:36:23;;;;;;;0.22;0.22;;;15.50;99.90;;;15.78;100.00;100226.78;5029842;28;20234;-83
2023/05/21 01:39:02;;;;;;;0.20;0.20;;;15.50;99.90;;;15.78;100.00;100224.13;5032323;28;20691;-82
2023/05/21 01:41:36;;;;;;;0.10;0.10;;;15.40;99.90;;;15.78;100.00;100220.56;5009987;28;20250;-82
2023/05/21 01:44:06;;;;;;;0.10;0.10;;;15.40;99.90;;;15.75;100.00;100221.50;5028657;28;20273;-84
2023/05/21 01:46:37;;;;;;;0.10;0.10;;;15.40;99.90;;;15.74;100.00;100224.19;5023167;28;20235;-83
2023/05/21 01:49:07;;;;;;;0.10;0.10;;;15.40;99.90;;;15.74;100.00;100227.72;5027277;28;20246;-82
2023/05/21 01:51:34;;;;;;;0.15;0.15;;;15.40;99.90;;;15.71;100.00;100237.56;5027488;28;20236;-83
2023/05/21 01:54:02;;;;;;;0.47;0.47;;;15.40;99.90;;;15.72;100.00;100236.66;5018145;28;20243;-83
2023/05/21 01:56:32;;;;;;;0.17;0.17;;;;;;;15.69;100.00;100232.25;5028219;28;20289;-83
2023/05/21 01:59:00;;;;;;;0.50;0.50;;;;;;;15.74;100.00;100237.53;5032489;28;20651;-83
2023/05/21 02:01:28;;;;;;;0.20;0.20;;;;;;;15.71;100.00;100237.56;5011772;28;20241;-83
2023/05/21 02:03:56;;;;;;;0.10;0.10;;;;;;;15.72;100.00;100231.34;5029464;28;20235;-83
2023/05/21 02:06:24;;;;;;;0.10;0.10;;;;;;;15.71;100.00;100232.22;5027371;28;20238;-82
2023/05/21 02:08:52;;;;;;;0.10;0.10;;;;;;;15.67;100.00;100232.28;5033068;28;20265;-83
2023/05/21 02:11:19;;;;;;;0.20;0.20;;;;;;;15.64;100.00;100240.31;5030535;28;20231;-83
2023/05/21 02:13:47;;;;;;;0.10;0.10;;;;;;;15.64;100.00;100243.00;5033336;28;20237;-82
2023/05/21 02:16:14;;;;;;;1.55;1.45;;;15.20;99.90;;;15.63;100.00;100238.56;5025468;28;20242;-83
2023/05/21 02:18:42;;;;;;;0.57;0.57;;;;;;;15.66;100.00;100245.63;5030746;28;20235;-82
2023/05/21 02:21:10;;;;;;;0.40;0.40;;;;;;;15.60;100.00;100246.59;5023824;28;20286;-83
2023/05/21 02:23:37;;;;;;;0.10;0.10;;;;;;;15.64;100.00;100239.44;5032756;28;20246;-82
2023/05/21 02:26:05;;;;;;;0.40;0.40;;;;;;;15.64;100.00;100247.44;5030331;28;20238;-82
2023/05/21 02:28:33;;;;;;;0.15;0.15;;;15.30;99.90;;;15.61;100.00;100245.69;5031050;28;20247;-82
2023/05/21 02:31:00;;;;;;;0.10;0.10;;;;;;;15.61;100.00;100240.38;5033587;28;20254;-81
2023/05/21 02:33:28;;;;;;;0.10;0.10;;;;;;;15.59;100.00;100246.59;5014878;28;20235;-82
2023/05/21 02:35:55;;;;;;;0.05;0.05;;;;;;;15.55;100.00;100248.38;5033792;28;20247;-82
2023/05/21 02:38:24;;;;;;;0.35;0.32;;;;;;;15.55;100.00;100253.72;5032534;28;20239;-83
2023/05/21 02:40:52;;;;;;;0.20;0.20;;;;;;;15.54;100.00;100254.63;5032003;28;20294;-82
2023/05/21 02:43:19;;;;;;;0.22;0.22;;;;;;;15.54;100.00;100249.28;5033091;28;20250;-82
2023/05/21 02:45:47;;;;;;;0.10;0.10;;;;;;;15.51;100.00;100256.44;5031638;28;20321;-82
2023/05/21 02:48:15;;;;;;;1.95;0.65;;;;;;;15.53;100.00;100260.84;5013791;28;20269;-82
2023/05/21 02:50:42;;;;;;;0.50;0.50;;;;;;;15.53;100.00;100265.31;5031817;28;20239;-82
2023/05/21 02:53:10;;;;;;;0.05;0.05;;;;;;;15.53;100.00;100267.97;5030784;28;20234;-82
2023/05/21 02:55:37;;;;;;;0.10;0.10;;;;;;;15.50;100.00;100268.88;5026793;28;20238;-83
2023/05/21 02:58:05;;;;;;;0.20;0.20;;;15.20;99.90;;;15.51;100.00;100272.44;5029751;28;20218;-84
2023/05/21 03:00:32;;;;;;;0.52;0.52;;;;;;;15.52;100.00;100268.88;5029390;28;20688;-83
2023/05/21 03:03:00;;;;;;;0.10;0.10;;;;;;;15.51;100.00;100273.31;5028328;28;20231;-83
2023/05/21 03:05:27;;;;;;;0.10;0.10;;;;;;;15.50;100.00;100268.88;5033014;28;20257;-83
2023/05/21 03:07:55;;;;;;;0.17;0.17;;;;;;;15.51;100.00;100280.44;5030533;28;20238;-83
2023/05/21 03:10:22;;;;;;;0.43;0.43;;;;;;;15.48;100.00;100262.69;5032374;28;20223;-82
2023/05/21 03:12:50;;;;;;;0.20;0.20;;;;;;;15.49;100.00;100266.25;5030777;28;20242;-83
2023/05/21 03:15:22;;;;;;;0.10;0.10;;;;;;;15.47;100.00;100270.72;5031568;28;20243;-82
2023/05/21 03:17:52;;;;;;;0.10;0.10;;;;;;;15.47;100.00;100268.03;5027603;28;20235;-82
2023/05/21 03:20:20;;;;;;;0.10;0.10;;;;;;;15.50;100.00;100266.22;5029365;28;20338;-82
2023/05/21 03:22:48;;;;;;;0.35;0.35;;;;;;;15.48;100.00;100257.38;5034107;28;20239;-82
2023/05/21 03:25:16;;;;;;;0.60;0.60;;;;;;;15.48;100.00;100261.81;5024507;28;20232;-82
2023/05/21 03:27:43;;;;;;;0.35;0.35;;;;;;;15.47;100.00;100260.06;5030096;28;20238;-83
2023/05/21 03:30:11;;;;;;;0.20;0.20;;;15.20;99.90;;;15.45;100.00;100260.06;5028441;28;20647;-82
2023/05/21 03:32:40;;;;;;;0.08;0.08;;;;;;;15.42;100.00;100269.91;5038731;28;20247;-83
2023/05/21 03:35:07;;;;;;;0.17;0.17;;;;;;;15.44;100.00;100260.97;5050076;28;20233;-82
2023/05/21 03:37:35;;;;;;;0.00;0.00;;;;;;;15.44;100.00;100268.97;5036098;28;20288;-82
2023/05/21 03:40:03;;;;;;;0.20;0.20;;;;;;;15.45;100.00;100270.75;5036508;28;20243;-83
2023/05/21 03:42:31;;;;;;;0.10;0.10;;;;;;;15.45;100.00;100264.53;5019871;28;20289;-85
2023/05/21 03:44:58;;;;;;;0.10;0.10;;;;;;;15.44;100.00;100257.44;5033569;28;20238;-83
2023/05/21 03:47:26;;;;;;;1.33;1.23;;;;;;;15.44;100.00;100268.09;5031820;28;20231;-84
2023/05/21 03:49:53;;;;;;;0.25;0.25;;;;;;;15.42;100.00;100272.56;5038236;28;20311;-82
2023/05/21 03:52:21;;;;;;;0.40;0.40;;;;;;;15.40;100.00;100269.91;5029666;28;20235;-83
2023/05/21 03:54:48;;;;;;;0.15;0.15;;;;;;;15.42;100.00;100273.44;5033424;28;20227;-83
2023/05/21 03:57:16;;;;;;;0.00;0.00;;;;;;;15.43;100.00;100277.00;5033580;28;20249;-81
2023/05/21 03:59:44;;;;;;;0.65;0.65;;;;;;;15.41;100.00;100268.13;5038324;28;20246;-83
2023/05/21 04:02:11;;;;;;;0.10;0.10;;;;;;;15.42;100.00;100280.56;5036272;28;20243;-83
2023/05/21 04:04:39;;;;;;;0.10;0.10;;;;;;;15.41;100.00;100284.13;5029876;28;20664;-83
2023/05/21 04:07:13;;;;;;;0.10;0.10;;;;;;;15.40;100.00;100285.91;5036580;28;20242;-83
2023/05/21 04:09:40;;;;;;;0.10;0.10;;;;;;;15.41;100.00;100293.00;5036917;28;20239;-83
2023/05/21 04:12:08;;;;;;;0.45;0.45;;;;;;;15.43;100.00;100293.84;5034672;28;20247;-84
2023/05/21 04:14:36;;;;;;;0.30;0.30;;;;;;;15.42;100.00;100289.44;5038489;28;20245;-83
2023/05/21 04:17:04;;;;;;;0.00;0.00;;;15.10;99.90;;;15.42;100.00;100293.88;5034111;28;20227;-83
2023/05/21 04:19:32;;;;;;;0.30;0.30;;;15.10;99.90;;;15.41;100.00;100298.31;5035160;28;20250;-83
2023/05/21 04:22:00;;;;;;;0.10;0.10;;;;;;;15.41;100.00;100302.78;5031724;28;20265;-82
2023/05/21 04:24:28;;;;;;;0.17;0.17;;;;;;;15.44;100.00;100297.41;5034039;28;20298;-82
2023/05/21 04:26:59;;;;;;;0.25;0.25;;;;;;;15.43;100.00;100296.53;5029396;28;20254;-83
2023/05/21 04:29:28;;;;;;;0.10;0.10;;;;;;;15.42;100.00;100296.53;5020474;28;20259;-86
2023/05/21 04:31:56;;;;;;;0.30;0.30;;;;;;;15.45;100.00;100300.06;5032640;28;20334;-86
2023/05/21 04:34:23;;;;;;;0.20;0.20;;;;;;;15.44;100.00;100306.28;5029929;28;20250;-86
2023/05/21 04:36:51;;;;;;;1.17;0.68;;;;;;;15.44;100.00;100308.06;5031946;28;20247;-86
2023/05/21 04:39:18;;;;;;;0.10;0.10;;;;;;;15.45;100.00;100312.50;5027391;28;20227;-86
2023/05/21 04:41:46;;;;;;;0.65;0.57;;;;;;;15.42;100.00;100315.19;5031568;28;20234;-82
2023/05/21 04:44:13;;;;;;;0.20;0.20;;;;;;;15.41;100.00;100316.97;5037783;28;20251;-83
2023/05/21 04:46:41;;;;;;;0.03;0.03;;;;;;;15.42;100.00;100324.06;5038590;28;20242;-82
2023/05/21 04:49:09;;;;;;;0.00;0.00;;;15.10;99.90;;;15.43;100.00;100325.84;5038775;28;20235;-83
2023/05/21 04:51:36;;;;;;;0.00;0.00;;;;;;;15.41;100.00;100324.97;5033490;28;20250;-82
2023/05/21 04:54:04;;;;;;;0.10;0.10;;;;;;;15.41;100.00;100330.31;5032263;28;20249;-83
2023/05/21 04:56:31;;;;;;;0.35;0.35;;;;;;;15.40;100.00;100325.88;5030158;28;20615;-82
2023/05/21 04:58:59;;;;;;;0.20;0.20;;;;;;;15.40;100.00;100331.22;5031502;28;20239;-82
2023/05/21 05:01:28;;;;;;;0.55;0.55;;;;;;;15.42;100.00;100340.06;5025344;28;20235;-83
2023/05/21 05:03:55;;;;;;;0.10;0.10;;;;;;;15.41;100.00;100342.75;5028441;28;20235;-82
2023/05/21 05:06:24;;;;;;;0.17;0.17;;;;;;;15.40;100.00;100333.88;5023403;28;20682;-82
2023/05/21 05:08:52;;;;;;;1.00;1.00;;;;;;;15.45;100.00;100339.16;5033453;28;20289;-82
2023/05/21 05:11:19;;;;;;;0.47;0.47;;;;;;;15.45;100.00;100347.13;5031072;28;20234;-85
2023/05/21 05:13:47;;;;;;;0.25;0.25;;;;;;;15.47;100.00;100345.34;5030911;28;20231;-83
2023/05/21 05:16:17;;;;;;;0.45;0.45;;;;;;;15.50;100.00;100343.50;5025300;28;20223;-86
2023/05/21 05:18:44;;;;;;;0.25;0.25;;;;;;;15.53;100.00;100347.91;5028340;28;20637;-85
2023/05/21 05:21:12;;;;;;;0.15;0.15;;;;;;;15.57;100.00;100347.91;5030952;28;20322;-84
2023/05/21 05:23:40;;;;;;;0.10;0.10;;;;;;;15.59;100.00;100343.44;5031736;28;20239;-84
2023/05/21 05:26:07;;;;;;;0.10;0.10;;;;;;;15.66;100.00;100347.81;5019065;28;20650;-85
2023/05/21 05:28:35;;;;;;;0.10;0.10;;;;;;;15.71;100.00;100347.75;5029681;28;20234;-85
2023/05/21 05:31:02;;;;;;;1.60;0.43;;;;;;;15.81;100.00;100348.50;5030510;28;20235;-84
2023/05/21 05:33:30;;;;;;;1.40;1.33;;;;;;;15.87;100.00;100343.09;5027589;28;20223;-84
2023/05/21 05:35:57;;;;;;;0.10;0.10;;;;;;;15.96;100.00;100335.84;5031942;28;20231;-85
2023/05/21 05:38:26;;;;;;;2.13;0.60;;;15.50;99.90;;;15.99;100.00;100326.91;5025686;28;20273;-84
2023/05/21 05:40:53;;;;;;;0.17;0.17;;;;;;;16.10;100.00;100329.41;5029544;28;20230;-84
2023/05/21 05:43:21;;;;;;;0.10;0.10;;;;;;;16.15;100.00;100316.88;5024575;28;20227;-85
2023/05/21 05:45:50;;;;;;;0.13;0.13;;;;;;;16.27;100.00;100317.56;5027085;28;20233;-84
2023/05/21 05:48:17;;;;;;;1.15;0.68;;;;;;;16.40;100.00;100298.69;5034995;28;20281;-83
2023/05/21 05:50:46;;;;;;;0.25;0.25;;;;;;;16.49;100.00;100304.75;5030392;28;20246;-84
2023/05/21 05:53:14;;;;;;;0.10;0.10;;;;;;;16.56;100.00;100295.72;5026868;28;20313;-84
2023/05/21 05:55:41;;;;;;;0.73;0.73;;;;;;;16.64;100.00;100283.13;5028362;28;20254;-84
2023/05/21 05:58:09;;;;;;;0.10;0.10;;;;;;;16.67;100.00;100273.34;5026891;28;20222;-86
2023/05/21 06:00:37;;;;;;;0.82;0.82;;;;;;;16.80;100.00;100265.06;5030286;28;20242;-84
2023/05/21 06:03:04;;;;;;;0.10;0.10;;;;;;;16.79;100.00;100257.97;5026651;28;20241;-83
2023/05/21 06:05:32;;;;;;;0.68;0.68;;;;;;;16.87;100.00;100249.81;5027813;28;20645;-82
2023/05/21 06:08:00;;;;;;;0.00;0.00;;;;;;;16.91;100.00;100246.19;5030709;28;20231;-82
2023/05/21 06:10:27;;;;;;;0.20;0.20;;;;;;;17.16;100.00;100242.09;5020110;28;20235;-81
2023/05/21 06:12:55;;;;;;;0.22;0.22;;;;;;;17.06;100.00;100223.63;5027171;28;20238;-82
2023/05/21 06:15:22;;;;;;;0.20;0.20;;;;;;;17.19;100.00;100227.81;5028832;28;20234;-82
2023/05/21 06:17:50;;;;;;;0.77;0.77;;;;;;;17.30;100.00;100220.44;5027762;28;20227;-81
2023/05/21 06:20:17;;;;;;;0.47;0.47;;;;;;;17.37;100.00;100219.38;5031215;28;20226;-82
2023/05/21 06:22:45;;;;;;;10.88;1.05;;;;;;;17.49;100.00;100213.75;5031710;28;20529;-82
2023/05/21 06:25:13;;;;;;;0.32;0.32;;;;;;;17.43;100.00;100203.22;5029724;28;20235;-82
2023/05/21 06:27:40;;;;;;;0.10;0.10;;;;;;;17.56;100.00;100209.16;5029068;28;20234;-82
2023/05/21 06:30:08;;;;;;;0.10;0.10;;;16.90;99.90;;;17.52;100.00;100188.75;5032097;28;20226;-82
2023/05/21 06:32:35;;;;;;;0.20;0.20;;;;;;;17.76;100.00;100195.34;5026906;28;20234;-82
2023/05/21 06:35:03;;;;;;;0.30;0.30;;;17.30;99.90;;;17.65;100.00;100186.66;5032325;28;20238;-82
2023/05/21 06:37:30;;;;;;;0.17;0.17;;;;;;;17.80;100.00;100180.97;5033164;28;20230;-81
2023/05/21 06:39:58;;;;;;;0.75;0.75;;;;;;;17.91;100.00;100170.91;5032653;28;20262;-82
2023/05/21 06:42:25;;;;;;;0.10;0.10;;;;;;;17.89;100.00;100167.38;5031523;28;20231;-82
2023/05/21 06:44:53;;;;;;;2.53;0.43;;;;;;;17.88;100.00;100157.59;5032734;28;20241;-81
2023/05/21 06:47:20;;;;;;;0.00;0.00;;;;;;;17.88;100.00;100153.13;5031834;28;20230;-81
2023/05/21 06:49:47;;;;;;;0.25;0.25;;;;;;;17.89;100.00;100148.66;5031908;28;20670;-82
2023/05/21 06:52:15;;;;;;;0.43;0.43;;;;;;;18.10;100.00;100156.13;5032035;28;20239;-82
2023/05/21 06:54:42;;;;;;;0.10;0.10;;;;;;;18.11;100.00;100144.50;5029270;28;20238;-81
2023/05/21 06:57:10;;;;;;;0.05;0.05;;;;;;;18.20;100.00;100155.00;5029761;28;20237;-82
2023/05/21 06:59:37;;;;;;;0.28;0.28;;;;;;;18.12;100.00;100132.88;5032166;28;20226;-82
2023/05/21 07:02:05;;;;;;;0.03;0.03;;;17.80;99.90;;;18.19;100.00;100139.81;5031526;28;20234;-82
2023/05/21 07:04:34;;;;;;;0.10;0.10;;;;;;;18.15;100.00;100130.13;5033053;28;20326;-82
2023/05/21 07:07:03;;;;;;;0.40;0.40;;;;;;;18.28;100.00;100135.19;5035567;28;20231;-82
2023/05/21 07:09:31;;;;;;;0.20;0.20;;;;;;;18.46;100.00;100143.56;5035769;28;20226;-82
2023/05/21 07:11:59;;;;;;;0.47;0.47;;;;;;;18.50;100.00;100126.50;5036760;28;20246;-82
2023/05/21 07:14:26;;;;;;;0.10;0.10;;;;;;;18.46;100.00;100118.59;5035642;28;20365;-83
2023/05/21 07:16:53;;;;;;;0.85;0.85;;;;;;;18.38;100.00;100100.06;5035314;28;20235;-82
2023/05/21 07:19:21;;;;;;;2.28;0.90;;;;;;;18.50;100.00;100106.88;5025911;28;20258;-81
2023/05/21 07:21:49;;;;;;;0.68;0.68;;;;;;;18.51;100.00;100100.59;5032650;28;20235;-81
2023/05/21 07:24:16;;;;;;;0.82;0.82;;;;;;;18.78;100.00;100104.31;5034745;28;20235;-83
2023/05/21 07:26:44;;;;;;;0.73;0.73;;;;;;;18.75;100.00;100104.41;5030370;28;20741;-82
2023/05/21 07:29:11;;;;;;;0.85;0.85;;;;;;;18.91;100.00;100097.66;5030793;28;20585;-82
2023/05/21 07:31:39;;;;;;;0.82;0.82;;;;;;;18.95;100.00;100080.56;5033118;28;20241;-82
2023/05/21 07:34:06;;;;;;;0.38;0.38;;;;;;;19.31;100.00;100086.56;5032862;28;20239;-82
2023/05/21 07:36:34;;;;;;;0.47;0.47;;;;;;;18.94;100.00;100040.41;5032245;28;20234;-83
2023/05/21 07:39:02;;;;;;;0.82;0.82;;;;;;;19.14;100.00;100032.63;5032197;28;20231;-83
2023/05/21 07:41:29;;;;;;;0.47;0.47;;;;;;;19.17;100.00;100020.00;5033746;28;20230;-82
2023/05/21 07:43:57;;;;;;;0.10;0.10;;;;;;;19.28;100.00;100024.13;5031917;28;20247;-82
2023/05/21 07:46:25;;;;;;;0.22;0.20;;;;;;;19.39;100.00;100030.00;5031534;28;20245;-82
2023/05/21 07:48:53;;;;;;;0.40;0.40;;;;;;;19.57;100.00;100021.41;5034544;28;20238;-83
2023/05/21 07:51:20;;;;;;;1.67;1.08;;;;;;;19.58;100.00;100004.38;5031143;28;20258;-83
2023/05/21 07:53:48;;;;;;;0.00;0.00;;;;;;;19.78;100.00;100003.69;5031920;28;20269;-82
2023/05/21 07:56:15;;;;;;;0.25;0.25;;;;;;;19.90;100.00;99988.94;5024302;28;20238;-83
2023/05/21 07:58:44;;;;;;;0.00;0.00;;;;;;;19.88;100.00;99964.84;5030186;28;20242;-83
2023/05/21 08:01:12;;;;;;;0.20;0.20;;;;;;;20.02;100.00;99946.44;5034006;28;20298;-83
2023/05/21 08:03:39;;;;;;;0.20;0.20;;;;;;;20.22;100.00;99950.16;5037329;28;20239;-83
2023/05/21 08:06:07;;;;;;;0.00;0.00;;;;;;;20.65;100.00;99952.97;5032508;28;20277;-83
2023/05/21 08:08:35;;;;;;;0.10;0.10;;;;;;;20.78;100.00;99915.72;5026716;28;20241;-85
2023/05/21 08:11:02;;;;;;;0.28;0.28;;;;;;;21.20;100.00;99931.91;5031265;28;20235;-83
2023/05/21 08:13:29;;;;;;;0.90;0.90;;;20.80;99.90;;;21.16;100.00;99906.09;5028058;28;20231;-83
2023/05/21 08:15:57;;;;;;;0.30;0.22;;;;;;;21.19;100.00;99879.06;5032256;28;20317;-83
2023/05/21 08:18:24;;;;;;;0.25;0.25;;;;;;;21.21;100.00;99842.22;5026371;28;20259;-83
2023/05/21 08:20:53;;;;;;;0.20;0.20;;;;;;;21.30;100.00;99823.03;5024628;28;20234;-83
2023/05/21 08:23:20;;;;;;;0.03;0.03;;;;;;;21.27;100.00;99808.84;5033501;28;20237;-82
2023/05/21 08:25:48;;;;;;;0.00;0.00;;;;;;;21.38;100.00;99801.16;5030648;28;20238;-85
2023/05/21 08:28:15;;;;;;;0.45;0.25;;;;;;;21.49;100.00;99789.91;5027841;28;20239;-85
2023/05/21 08:30:43;;;;;;;0.08;0.08;;;;;;;21.29;100.00;99732.53;5027380;28;20226;-86
2023/05/21 08:33:10;;;;;;;0.10;0.10;;;;;;;21.84;100.00;99767.63;5029146;28;20237;-85
2023/05/21 08:35:38;;;;;;;0.65;0.65;;;;;;;21.77;100.00;99738.38;5028076;28;20238;-85
2023/05/21 08:38:06;;;;;;;0.00;0.00;;;;;;;21.73;100.00;99753.78;5029496;28;20302;-86
2023/05/21 08:40:34;;;;;;;0.03;0.03;;;21.60;99.90;;;22.16;100.00;99776.88;5029636;28;20238;-86
2023/05/21 08:43:02;;;;;;;0.00;0.00;;;;;;;21.47;100.00;99673.44;5028543;28;20233;-85
2023/05/21 08:45:39;;;;;;;0.20;0.20;;;21.20;99.90;;;21.56;100.00;99690.03;5030031;28;20610;-86
2023/05/21 08:48:10;;;;;;;0.57;0.35;;;21.30;99.90;;;21.58;100.00;99674.69;5129531;23;20225;-84
2023/05/21 08:50:37;;;;;;;0.03;0.03;;;;;;;22.39;100.00;99732.66;5048196;28;20249;-83
2023/05/21 08:53:05;;;;;;;0.20;0.20;;;;;;;22.49;100.00;99711.50;5038093;28;20233;-83
2023/05/21 08:55:56;;;;;;;0.15;0.15;;;22.20;99.90;;;22.71;100.00;99706.75;5045323;28;20253;-83
2023/05/21 08:58:24;;;;;;;0.90;0.52;;;;;;;22.32;100.00;99653.97;5028949;28;20608;-82
2023/05/21 09:00:52;;;;;;;0.20;0.20;;;;;;;22.18;100.00;99615.22;5033557;28;20249;-83
2023/05/21 09:03:21;;;;;;;0.00;0.00;;;;;;;22.23;100.00;99580.84;5044370;28;20326;-82
2023/05/21 09:05:50;;;;;;;0.65;0.65;;;;;;;22.15;100.00;99559.72;5042437;28;20230;-82
2023/05/21 09:08:23;;;;;;;0.82;0.82;;;21.80;99.90;;;21.98;100.00;99532.72;5027587;28;20226;-84
2023/05/21 09:10:51;;;;;;;0.00;0.00;;;22.00;99.90;;;22.47;100.00;99613.72;5033635;28;20226;-83
2023/05/21 09:13:19;;;;;;;0.10;0.10;;;22.00;99.90;;;22.34;100.00;99591.94;5030822;28;20226;-82
2023/05/21 09:15:47;;;;;;;0.13;0.13;;;;;;;22.42;100.00;99592.41;5014092;28;20234;-84
2023/05/21 09:18:15;;;;;;;0.32;0.32;;;;;;;22.43;100.00;99607.63;5031762;28;20230;-83
2023/05/21 09:20:44;;;;;;;1.45;0.47;;;;;;;21.95;100.00;99524.81;5049925;28;20640;-82
2023/05/21 09:23:15;;;;;;;0.47;0.45;;;;;;;22.38;100.00;99550.41;5047665;28;20226;-82
2023/05/21 09:25:47;;;;;;;0.00;0.00;;;22.00;99.90;;;22.28;100.00;99558.13;5030887;28;20230;-81
2023/05/21 09:28:18;;;;;;;0.43;0.43;;;22.10;99.90;;;22.48;100.00;99594.78;5027386;28;20237;-81
2023/05/21 09:30:52;;;;;;;0.43;0.43;;;22.60;99.90;;;23.12;100.00;99638.97;5036080;28;20234;-81
2023/05/21 09:33:28;;;;;;;0.45;0.20;;;22.90;99.90;;;23.32;100.00;99600.97;5029140;28;20613;-82
2023/05/21 09:35:56;;;;;;;0.10;0.10;;;;;;;23.47;100.00;99546.16;5028807;28;20654;-84
2023/05/21 09:38:25;;;;;;;0.28;0.28;;;23.40;99.90;;;23.90;100.00;99541.84;5020060;28;20227;-87
2023/05/21 09:40:55;;;;;;;0.15;0.15;;;23.70;99.90;;;23.97;100.00;99509.06;5035386;28;20257;-82
2023/05/21 09:43:23;;;;;;;0.22;0.20;;;;;;;23.86;100.00;99494.38;5025310;28;20239;-82
2023/05/21 09:45:52;;;;;;;0.00;0.00;;;23.70;99.90;;;24.22;100.00;99484.97;5026359;28;20252;-81
2023/05/21 09:48:41;;;;;;;0.20;0.20;;;23.70;99.90;;;24.19;100.00;99383.38;5030021;28;20265;-82
2023/05/21 09:51:16;;;;;;;0.60;0.47;;;23.90;99.90;;;24.35;100.00;99387.84;5035151;28;20249;-79
2023/05/21 09:53:54;;;;;;;0.10;0.10;;;23.50;99.90;;;24.02;100.00;99309.78;5016387;28;20229;-81
2023/05/21 09:56:23;;;;;;;0.40;0.28;;;23.80;99.90;;;24.02;100.00;99243.16;5021911;28;20721;-80
2023/05/21 09:58:56;;;;;;;0.00;0.00;;;23.60;99.90;;;23.90;100.00;99211.53;5031612;28;20231;-82
2023/05/21 10:01:23;;;;;;;1.17;0.95;;;;;;;24.83;100.00;99364.88;5029555;28;20267;-80
2023/05/21 10:03:56;;;;;;;1.10;0.22;;;24.50;99.90;;;24.82;100.00;99315.34;5023557;28;20227;-81
2023/05/21 10:06:27;;;;;;;0.65;0.55;;;23.90;99.90;;;23.80;100.00;99113.22;5026962;28;20312;-80
2023/05/21 10:08:56;;;;;;;0.10;0.10;;;23.60;99.90;;;23.91;100.00;99089.06;5031345;28;20237;-83
2023/05/21 10:11:30;;;;;;;0.95;0.95;;;23.90;99.90;;;24.53;100.00;99179.41;5024115;28;20226;-80
2023/05/21 10:14:05;;;;;;;0.47;0.47;;;24.40;99.90;;;24.91;100.00;99205.66;5026035;28;20302;-81
2023/05/21 10:16:34;;;;;;;0.15;0.15;;;24.10;99.90;;;24.37;100.00;99164.34;5044717;28;20259;-80
2023/05/21 10:19:04;;;;;;;0.75;0.50;;;24.20;99.90;;;24.88;100.00;99205.88;5030512;28;20261;-80
2023/05/21 10:21:34;;;;;;;0.00;0.00;;;;;;;24.50;100.00;99103.94;5034964;28;20317;-81
2023/05/21 10:24:03;;;;;;;0.52;0.52;;;24.10;99.90;;;24.36;100.00;99095.06;5026324;28;20246;-80
2023/05/21 10:26:30;;;;;;;0.32;0.32;;;;;;;25.05;100.00;99208.31;5030157;28;20612;-81
2023/05/21 10:28:59;;;;;;;0.30;0.30;;;;;;;25.06;100.00;99174.03;5046098;28;20233;-80
2023/05/21 10:31:27;;;;;;;0.17;0.17;;;;;;;25.55;100.00;99246.31;5026091;28;20226;-80
2023/05/21 10:33:55;;;;;;;0.00;0.00;;;;;;;25.33;100.00;99166.66;5026645;28;20238;-81
2023/05/21 10:36:24;;;;;;;0.20;0.10;;;25.00;99.90;;;24.99;100.00;99108.69;5011691;28;20258;-81
2023/05/21 10:38:53;;;;;;;3.25;1.25;;;24.40;99.90;;;24.65;100.00;99010.09;5002402;28;20230;-81
2023/05/21 10:41:21;;;;;;;0.10;0.10;;;24.60;99.90;;;24.81;100.00;99100.00;5042424;28;20229;-81
2023/05/21 10:44:33;;;;;;;0.28;0.28;;;24.90;99.90;;;25.33;100.00;99084.59;5049485;28;20245;-81
2023/05/21 10:47:11;;;;;;;1.27;0.95;;;25.30;99.90;;;25.58;100.00;99135.97;5140533;23;20248;-80
2023/05/21 10:50:10;;;;;;;0.00;0.00;;;25.60;99.90;;;25.58;100.00;99103.47;5030273;28;20301;-83
2023/05/21 10:53:16;;;;;;;0.00;0.00;;;25.20;99.90;;;25.29;100.00;99074.97;5027877;28;20234;-81
2023/05/21 10:56:22;;;;;;;0.00;0.00;;;24.90;99.90;;;24.90;100.00;98949.75;5029711;28;20241;-81
2023/05/21 10:59:20;;;;;;;2.00;1.05;;;24.80;99.90;;;25.08;100.00;99010.63;5003513;28;20240;-84
2023/05/21 11:01:51;;;;;;;0.40;0.40;;;24.90;99.90;;;25.28;100.00;99011.88;5005424;28;20234;-82
2023/05/21 11:04:26;;;;;;;0.30;0.28;;;24.80;99.90;;;24.97;100.00;98951.06;5010158;28;20246;-83
2023/05/21 11:06:55;;;;;;;0.10;0.10;;;;;;;25.26;100.00;99034.63;5004288;28;20226;-83
2023/05/21 11:09:22;;;;;;;0.00;0.00;;;;;;;25.02;100.00;99002.13;5011004;28;20266;-83